Time;durP1;ratioP1;P1;durP2;ratioP2;P2;SDS_P1;SDS_P2;PMS_P1;PMS_P2;Temp;Humidity;BMP_temperature;BMP_pressure;BME280_temperature;BME280_humidity;BME280_pressure;Samples;Min_cycle;Max_cycle;Signal;HPM_P1;HPM_P2
2023/09/14 00:01:22;;;;;;;;;;;19.10;99.90;;;;;;5078163;28;19987;-86
2023/09/14 00:03:51;;;;;;;;;;;19.00;99.90;;;;;;5085896;28;19928;-85
2023/09/14 00:06:18;;;;;;;;;;;19.00;99.90;;;;;;5081148;28;19970;-85
2023/09/14 00:08:45;;;;;;;;;;;18.90;99.90;;;;;;5081884;28;20287;-85
2023/09/14 00:11:12;;;;;;;;;;;18.90;99.90;;;;;;5083269;28;19928;-84
2023/09/14 00:13:39;;;;;;;;;;;18.90;99.90;;;;;;5085012;28;19932;-85
2023/09/14 00:16:06;;;;;;;;;;;18.90;99.90;;;;;;5087032;28;20015;-85
2023/09/14 00:18:33;;;;;;;;;;;18.90;99.90;;;;;;5068677;28;19924;-84
2023/09/14 00:21:00;;;;;;;;;;;18.80;99.90;;;;;;5087995;28;19929;-85
2023/09/14 00:23:26;;;;;;;;;;;18.80;99.90;;;;;;5089804;28;19925;-85
2023/09/14 00:25:53;;;;;;;;;;;18.80;99.90;;;;;;5069926;28;19932;-86
2023/09/14 00:28:20;;;;;;;;;;;18.70;99.90;;;;;;5090699;28;19936;-85
2023/09/14 00:30:49;;;;;;;;;;;18.70;99.90;;;;;;5091756;28;19925;-85
2023/09/14 00:33:16;;;;;;;;;;;18.70;99.90;;;;;;5092809;28;19931;-85
2023/09/14 00:35:46;;;;;;;;;;;18.70;99.90;;;;;;5091351;28;19978;-86
2023/09/14 00:38:13;;;;;;;;;;;18.70;99.90;;;;;;5090656;28;19928;-86
2023/09/14 00:40:41;;;;;;;;;;;18.70;99.90;;;;;;5072733;28;19932;-85
2023/09/14 00:43:08;;;;;;;;;;;18.70;99.90;;;;;;5092649;28;19954;-87
2023/09/14 00:45:35;;;;;;;;;;;18.70;99.90;;;;;;5091513;28;19931;-85
2023/09/14 00:48:02;;;;;;;;;;;18.60;99.90;;;;;;5092257;28;19987;-86
2023/09/14 00:50:29;;;;;;;;;;;18.60;99.90;;;;;;5090165;28;19932;-85
2023/09/14 00:53:00;;;;;;;;;;;18.60;99.90;;;;;;5082004;28;19962;-86
2023/09/14 00:55:27;;;;;;;;;;;18.60;99.90;;;;;;5092373;28;19924;-85
2023/09/14 00:57:55;;;;;;;;;;;18.60;99.90;;;;;;5089346;28;19925;-85
2023/09/14 01:00:22;;;;;;;;;;;18.70;99.90;;;;;;5091650;28;19951;-85
2023/09/14 01:02:54;;;;;;;;;;;18.60;99.90;;;;;;5091577;28;19924;-85
2023/09/14 01:05:23;;;;;;;;;;;18.60;99.90;;;;;;5085132;28;19924;-86
2023/09/14 01:07:49;;;;;;;;;;;18.70;99.90;;;;;;5091332;28;19942;-86
2023/09/14 01:10:16;;;;;;;;;;;18.70;99.90;;;;;;5091878;28;19931;-85
2023/09/14 01:12:46;;;;;;;;;;;18.70;99.90;;;;;;5090525;28;19932;-86
2023/09/14 01:15:31;;;;;;;;;;;18.70;99.90;;;;;;5088605;28;19988;-86
2023/09/14 01:17:58;;;;;;;;;;;18.70;99.90;;;;;;5091249;28;20010;-86
2023/09/14 01:20:30;;;;;;;;;;;18.70;99.90;;;;;;5091455;28;19947;-85
2023/09/14 01:23:16;;;;;;;;;;;18.70;99.90;;;;;;5088725;28;19925;-86
2023/09/14 01:25:45;;;;;;;;;;;18.60;99.90;;;;;;5090795;28;19924;-86
2023/09/14 01:28:13;;;;;;;;;;;18.60;99.90;;;;;;5091576;28;19928;-86
2023/09/14 01:30:41;;;;;;;;;;;18.60;99.90;;;;;;5089647;28;19967;-85
2023/09/14 01:33:09;;;;;;;;;;;18.60;99.90;;;;;;5071001;28;20337;-86
2023/09/14 01:35:46;;;;;;;;;;;18.50;99.90;;;;;;5071653;28;20394;-85
2023/09/14 01:38:13;;;;;;;;;;;18.50;99.90;;;;;;5091661;28;19928;-85
2023/09/14 01:40:42;;;;;;;;;;;18.50;99.90;;;;;;5090810;28;19978;-86
2023/09/14 01:43:08;;;;;;;;;;;18.40;99.90;;;;;;5090661;28;19924;-86
2023/09/14 01:45:36;;;;;;;;;;;18.40;99.90;;;;;;5077746;28;19924;-86
2023/09/14 01:48:02;;;;;;;;;;;18.40;99.90;;;;;;5088771;28;19924;-86
2023/09/14 01:50:29;;;;;;;;;;;18.30;99.90;;;;;;5070965;28;19932;-85
2023/09/14 01:52:57;;;;;;;;;;;18.30;99.90;;;;;;5090700;28;19955;-87
2023/09/14 01:55:23;;;;;;;;;;;18.30;99.90;;;;;;5075831;28;19925;-85
2023/09/14 01:57:50;;;;;;;;;;;18.30;99.90;;;;;;5091081;28;20190;-86
2023/09/14 02:00:17;;;;;;;;;;;18.20;99.90;;;;;;5090989;28;20281;-85
2023/09/14 02:02:43;;;;;;;;;;;18.20;99.90;;;;;;5091048;28;19946;-86
2023/09/14 02:05:10;;;;;;;;;;;18.10;99.90;;;;;;5088636;28;19928;-85
2023/09/14 02:07:37;;;;;;;;;;;18.20;99.90;;;;;;5091306;28;19925;-85
2023/09/14 02:10:04;;;;;;;;;;;18.20;99.90;;;;;;5091604;28;19983;-86
2023/09/14 02:12:30;;;;;;;;;;;18.10;99.90;;;;;;5090464;28;20403;-86
2023/09/14 02:14:57;;;;;;;;;;;18.10;99.90;;;;;;5090610;28;19920;-86
2023/09/14 02:17:24;;;;;;;;;;;18.00;99.90;;;;;;5090283;28;20034;-85
2023/09/14 02:19:52;;;;;;;;;;;18.10;99.90;;;;;;5090667;28;19924;-85
2023/09/14 02:22:19;;;;;;;;;;;18.00;99.90;;;;;;5091561;28;19939;-86
2023/09/14 02:24:47;;;;;;;;;;;18.00;99.90;;;;;;5087672;28;19970;-86
2023/09/14 02:27:14;;;;;;;;;;;18.00;99.90;;;;;;5088319;28;19946;-86
2023/09/14 02:29:40;;;;;;;;;;;18.00;99.90;;;;;;5090465;28;19951;-86
2023/09/14 02:32:07;;;;;;;;;;;18.00;99.90;;;;;;5090543;28;19988;-86
2023/09/14 02:34:34;;;;;;;;;;;17.90;99.90;;;;;;5090609;28;19925;-85
2023/09/14 02:37:02;;;;;;;;;;;17.90;99.90;;;;;;5073087;28;20472;-85
2023/09/14 02:39:29;;;;;;;;;;;17.90;99.90;;;;;;5090711;28;19976;-86
2023/09/14 02:41:56;;;;;;;;;;;17.90;99.90;;;;;;5089428;28;19933;-85
2023/09/14 02:44:22;;;;;;;;;;;17.90;99.90;;;;;;5076909;28;20350;-85
2023/09/14 02:46:49;;;;;;;;;;;17.90;99.90;;;;;;5077487;28;20118;-85
2023/09/14 02:49:16;;;;;;;;;;;17.80;99.90;;;;;;5077549;28;19970;-85
2023/09/14 02:51:42;;;;;;;;;;;17.80;99.90;;;;;;5070470;28;19925;-85
2023/09/14 02:54:09;;;;;;;;;;;17.80;99.90;;;;;;5076998;28;19928;-84
2023/09/14 02:56:35;;;;;;;;;;;17.80;99.90;;;;;;5077135;28;20348;-85
2023/09/14 02:59:02;;;;;;;;;;;17.70;99.90;;;;;;5076926;28;19932;-85
2023/09/14 03:01:29;;;;;;;;;;;17.70;99.90;;;;;;5076921;28;19947;-84
2023/09/14 03:03:57;;;;;;;;;;;17.70;99.90;;;;;;5077409;28;19924;-83
2023/09/14 03:06:24;;;;;;;;;;;17.80;99.90;;;;;;5053690;28;19932;-85
2023/09/14 03:08:50;;;;;;;;;;;17.70;99.90;;;;;;5076251;28;20437;-85
2023/09/14 03:11:17;;;;;;;;;;;17.60;99.90;;;;;;5075838;28;20388;-85
2023/09/14 03:13:44;;;;;;;;;;;17.60;99.90;;;;;;5076162;28;20351;-85
2023/09/14 03:16:10;;;;;;;;;;;17.60;99.90;;;;;;5074778;28;19994;-84
2023/09/14 03:18:37;;;;;;;;;;;17.60;99.90;;;;;;5063384;28;19932;-85
2023/09/14 03:21:04;;;;;;;;;;;17.60;99.90;;;;;;5081551;28;20334;-85
2023/09/14 03:23:30;;;;;;;;;;;17.60;99.90;;;;;;5083517;28;19924;-85
2023/09/14 03:25:57;;;;;;;;;;;17.50;99.90;;;;;;5064152;28;19924;-85
2023/09/14 03:28:24;;;;;;;;;;;17.50;99.90;;;;;;5082308;28;19936;-85
2023/09/14 03:30:50;;;;;;;;;;;17.50;99.90;;;;;;5084982;28;19931;-85
2023/09/14 03:33:17;;;;;;;;;;;17.50;99.90;;;;;;5080867;28;20007;-84
2023/09/14 03:35:44;;;;;;;;;;;17.50;99.90;;;;;;5079990;28;19925;-85
2023/09/14 03:38:11;;;;;;;;;;;17.50;99.90;;;;;;5080962;28;19935;-84
2023/09/14 03:40:37;;;;;;;;;;;17.50;99.90;;;;;;5082186;28;19977;-85
2023/09/14 03:43:04;;;;;;;;;;;17.50;99.90;;;;;;5080527;28;19976;-86
2023/09/14 03:45:31;;;;;;;;;;;17.50;99.90;;;;;;5081734;28;19929;-85
2023/09/14 03:47:57;;;;;;;;;;;17.50;99.90;;;;;;5081836;28;19925;-85
2023/09/14 03:50:24;;;;;;;;;;;17.50;99.90;;;;;;5080553;28;19924;-85
2023/09/14 03:52:51;;;;;;;;;;;17.50;99.90;;;;;;5080270;28;20403;-85
2023/09/14 03:55:17;;;;;;;;;;;17.50;99.90;;;;;;5080271;28;19925;-85
2023/09/14 03:57:47;;;;;;;;;;;17.50;99.90;;;;;;5080545;28;20345;-85
2023/09/14 04:00:15;;;;;;;;;;;17.50;99.90;;;;;;5077109;28;19924;-85
2023/09/14 04:02:42;;;;;;;;;;;17.60;99.90;;;;;;5061485;28;19924;-85
2023/09/14 04:05:10;;;;;;;;;;;17.70;99.90;;;;;;5077612;28;19925;-85
2023/09/14 04:07:36;;;;;;;;;;;17.80;99.90;;;;;;5062863;28;19947;-85
2023/09/14 04:10:04;;;;;;;;;;;17.80;99.90;;;;;;5082167;28;19989;-85
2023/09/14 04:12:31;;;;;;;;;;;17.80;99.90;;;;;;5086675;28;19974;-85
2023/09/14 04:14:58;;;;;;;;;;;17.90;99.90;;;;;;5066993;28;19924;-85
2023/09/14 04:17:25;;;;;;;;;;;17.90;99.90;;;;;;5084410;28;19925;-85
2023/09/14 04:19:51;;;;;;;;;;;18.00;99.90;;;;;;5084278;28;20375;-85
2023/09/14 04:22:18;;;;;;;;;;;18.00;99.90;;;;;;5083662;28;19925;-85
2023/09/14 04:24:45;;;;;;;;;;;18.10;99.90;;;;;;5080215;28;20435;-85
2023/09/14 04:27:12;;;;;;;;;;;18.10;99.90;;;;;;5064569;28;19940;-85
2023/09/14 04:29:38;;;;;;;;;;;18.10;99.90;;;;;;5061461;28;20022;-85
2023/09/14 04:32:05;;;;;;;;;;;18.10;99.90;;;;;;5079147;28;19928;-85
2023/09/14 04:34:32;;;;;;;;;;;18.10;99.90;;;;;;5077750;28;19928;-85
2023/09/14 04:36:58;;;;;;;;;;;18.20;99.90;;;;;;5080049;28;19999;-85
2023/09/14 04:39:26;;;;;;;;;;;18.20;99.90;;;;;;5069456;28;19924;-86
2023/09/14 04:41:53;;;;;;;;;;;18.20;99.90;;;;;;5073521;28;19932;-86
2023/09/14 04:44:19;;;;;;;;;;;18.30;99.90;;;;;;5082919;28;19924;-85
2023/09/14 04:46:46;;;;;;;;;;;18.30;99.90;;;;;;5087134;28;19928;-85
2023/09/14 04:49:13;;;;;;;;;;;18.40;99.90;;;;;;5079111;28;20406;-86
2023/09/14 04:51:39;;;;;;;;;;;18.30;99.90;;;;;;5061288;28;20012;-84
2023/09/14 04:54:06;;;;;;;;;;;18.40;99.90;;;;;;5062967;28;19928;-85
2023/09/14 04:56:33;;;;;;;;;;;18.40;99.90;;;;;;5069897;28;19978;-85
2023/09/14 04:59:01;;;;;;;;;;;18.40;99.90;;;;;;5080891;28;20368;-85
2023/09/14 05:01:28;;;;;;;;;;;18.40;99.90;;;;;;5080695;28;19931;-85
2023/09/14 05:03:55;;;;;;;;;;;18.40;99.90;;;;;;5082561;28;20330;-85
2023/09/14 05:06:22;;;;;;;;;;;18.40;99.90;;;;;;5083770;28;19924;-86
2023/09/14 05:08:48;;;;;;;;;;;18.40;99.90;;;;;;5085088;28;20457;-85
2023/09/14 05:11:15;;;;;;;;;;;18.40;99.90;;;;;;5082749;28;19978;-85
2023/09/14 05:13:41;;;;;;;;;;;18.40;99.90;;;;;;5082561;28;20342;-86
2023/09/14 05:16:08;;;;;;;;;;;18.40;99.90;;;;;;5082231;28;19992;-86
2023/09/14 05:18:35;;;;;;;;;;;18.50;99.90;;;;;;5082450;28;19990;-85
2023/09/14 05:21:02;;;;;;;;;;;18.40;99.90;;;;;;5082448;28;20300;-85
2023/09/14 05:23:29;;;;;;;;;;;18.40;99.90;;;;;;5083553;28;19925;-85
2023/09/14 05:25:56;;;;;;;;;;;18.40;99.90;;;;;;5082569;28;19925;-85
2023/09/14 05:28:22;;;;;;;;;;;18.40;99.90;;;;;;5077253;28;20303;-84
2023/09/14 05:30:50;;;;;;;;;;;18.40;99.90;;;;;;5079059;28;19924;-85
2023/09/14 05:33:16;;;;;;;;;;;18.40;99.90;;;;;;5064086;28;19932;-86
2023/09/14 05:35:43;;;;;;;;;;;18.40;99.90;;;;;;5081303;28;19996;-87
2023/09/14 05:38:10;;;;;;;;;;;18.30;99.90;;;;;;5084447;28;19924;-84
2023/09/14 05:40:37;;;;;;;;;;;18.40;99.90;;;;;;5077741;28;19924;-85
2023/09/14 05:43:04;;;;;;;;;;;18.30;99.90;;;;;;5066553;28;19932;-85
2023/09/14 05:45:31;;;;;;;;;;;18.40;99.90;;;;;;5084087;28;19992;-85
2023/09/14 05:47:58;;;;;;;;;;;18.40;99.90;;;;;;5084637;28;20303;-86
2023/09/14 05:50:24;;;;;;;;;;;18.30;99.90;;;;;;5083906;28;19925;-86
2023/09/14 05:52:51;;;;;;;;;;;18.30;99.90;;;;;;5086547;28;19928;-85
2023/09/14 05:55:18;;;;;;;;;;;18.40;99.90;;;;;;5085377;28;19924;-85
2023/09/14 05:57:44;;;;;;;;;;;18.40;99.90;;;;;;5084152;28;19932;-85
2023/09/14 06:00:13;;;;;;;;;;;18.40;99.90;;;;;;5080729;28;19929;-86
2023/09/14 06:02:40;;;;;;;;;;;18.40;99.90;;;;;;5082404;28;19987;-86
2023/09/14 06:05:07;;;;;;;;;;;18.50;99.90;;;;;;5082502;28;19924;-85
2023/09/14 06:07:49;;;;;;;;;;;18.50;99.90;;;;;;5082031;28;19934;-85
2023/09/14 06:10:16;;;;;;;;;;;18.70;99.90;;;;;;5082847;28;19951;-85
2023/09/14 06:12:43;;;;;;;;;;;18.70;99.90;;;;;;5081667;28;20487;-85
2023/09/14 06:15:10;;;;;;;;;;;18.70;99.90;;;;;;5063774;28;19934;-86
2023/09/14 06:17:37;;;;;;;;;;;18.80;99.90;;;;;;5081291;28;19967;-85
2023/09/14 06:20:05;;;;;;;;;;;18.90;99.90;;;;;;5080363;28;19978;-85
2023/09/14 06:22:32;;;;;;;;;;;18.90;99.90;;;;;;5059206;28;19936;-85
2023/09/14 06:24:59;;;;;;;;;;;18.90;99.90;;;;;;5081693;28;19928;-86
2023/09/14 06:27:25;;;;;;;;;;;18.90;99.90;;;;;;5082221;28;19924;-85
2023/09/14 06:29:52;;;;;;;;;;;18.90;99.90;;;;;;5082160;28;19932;-84
2023/09/14 06:32:19;;;;;;;;;;;18.90;99.90;;;;;;5082924;28;19946;-85
2023/09/14 06:34:46;;;;;;;;;;;18.90;99.90;;;;;;5079588;28;19925;-85
2023/09/14 06:37:13;;;;;;;;;;;19.00;99.90;;;;;;5080812;28;19929;-86
2023/09/14 06:39:40;;;;;;;;;;;19.00;99.90;;;;;;5077205;28;20299;-85
2023/09/14 06:42:06;;;;;;;;;;;19.00;99.90;;;;;;5077568;28;20128;-86
2023/09/14 06:44:33;;;;;;;;;;;19.10;99.90;;;;;;5081503;28;19947;-85
2023/09/14 06:47:01;;;;;;;;;;;19.10;99.90;;;;;;5066844;28;19963;-85
2023/09/14 06:49:28;;;;;;;;;;;19.10;99.90;;;;;;5083443;28;19924;-85
2023/09/14 06:51:54;;;;;;;;;;;19.20;99.90;;;;;;5066211;28;19924;-85
2023/09/14 06:54:21;;;;;;;;;;;19.20;99.90;;;;;;5083380;28;20453;-85
2023/09/14 06:56:48;;;;;;;;;;;19.20;99.90;;;;;;5082955;28;19924;-86
2023/09/14 06:59:14;;;;;;;;;;;19.30;99.90;;;;;;5082716;28;19967;-85
2023/09/14 07:01:41;;;;;;;;;;;19.30;99.90;;;;;;5083008;28;20001;-85
2023/09/14 07:04:08;;;;;;;;;;;19.30;99.90;;;;;;5085343;28;19928;-85
2023/09/14 07:06:35;;;;;;;;;;;19.30;99.90;;;;;;5084070;28;20399;-85
2023/09/14 07:09:02;;;;;;;;;;;19.30;99.90;;;;;;5066713;28;19983;-85
2023/09/14 07:11:29;;;;;;;;;;;19.30;99.90;;;;;;5082201;28;19932;-85
2023/09/14 07:13:58;;;;;;;;;;;19.30;99.90;;;;;;5068436;28;20445;-85
2023/09/14 07:16:24;;;;;;;;;;;19.30;99.90;;;;;;5074732;28;19925;-85
2023/09/14 07:18:51;;;;;;;;;;;19.20;99.90;;;;;;5075540;28;19970;-84
2023/09/14 07:21:18;;;;;;;;;;;19.20;99.90;;;;;;5076208;28;19928;-85
2023/09/14 07:23:46;;;;;;;;;;;19.10;99.90;;;;;;5079172;28;19924;-85
2023/09/14 07:26:13;;;;;;;;;;;19.20;99.90;;;;;;5077896;28;20046;-84
2023/09/14 07:28:40;;;;;;;;;;;19.20;99.90;;;;;;5078076;28;19928;-85
2023/09/14 07:31:08;;;;;;;;;;;19.20;99.90;;;;;;5078289;28;19932;-86
2023/09/14 07:33:35;;;;;;;;;;;19.30;99.90;;;;;;5077295;28;19925;-85
2023/09/14 07:36:01;;;;;;;;;;;19.30;99.90;;;;;;5060070;28;20346;-85
2023/09/14 07:38:28;;;;;;;;;;;19.40;99.90;;;;;;5077477;28;19924;-85
2023/09/14 07:40:55;;;;;;;;;;;19.40;99.90;;;;;;5070430;28;19925;-86
2023/09/14 07:43:23;;;;;;;;;;;19.40;99.90;;;;;;5085300;28;19928;-85
2023/09/14 07:45:50;;;;;;;;;;;19.50;99.90;;;;;;5077278;28;19987;-85
2023/09/14 07:48:17;;;;;;;;;;;19.50;99.90;;;;;;5061252;28;20360;-85
2023/09/14 07:50:44;;;;;;;;;;;19.60;99.90;;;;;;5079989;28;19924;-85
2023/09/14 07:53:10;;;;;;;;;;;19.60;99.90;;;;;;5080743;28;19928;-85
2023/09/14 07:55:37;;;;;;;;;;;19.80;99.90;;;;;;5086246;28;19947;-85
2023/09/14 07:58:06;;;;;;;;;;;19.70;99.90;;;;;;5085464;28;19924;-85
2023/09/14 08:00:34;;;;;;;;;;;19.80;99.90;;;;;;5087462;28;19932;-85
2023/09/14 08:03:02;;;;;;;;;;;19.80;99.90;;;;;;5086527;28;20379;-85
2023/09/14 08:05:29;;;;;;;;;;;19.90;99.90;;;;;;5086975;28;19932;-86
2023/09/14 08:07:56;;;;;;;;;;;19.90;99.90;;;;;;5087956;28;20354;-85
2023/09/14 08:10:23;;;;;;;;;;;20.00;99.90;;;;;;5088060;28;19928;-85
2023/09/14 08:12:50;;;;;;;;;;;20.00;99.90;;;;;;5089022;28;19935;-86
2023/09/14 08:15:17;;;;;;;;;;;20.00;99.90;;;;;;5091754;28;19986;-85
2023/09/14 08:17:44;;;;;;;;;;;20.00;99.90;;;;;;5091267;28;20458;-86
2023/09/14 08:20:11;;;;;;;;;;;19.90;99.90;;;;;;5074218;28;20019;-85
2023/09/14 08:22:38;;;;;;;;;;;19.80;99.90;;;;;;5091616;28;19924;-86
2023/09/14 08:25:06;;;;;;;;;;;19.80;99.90;;;;;;5079742;28;20353;-87
2023/09/14 08:27:34;;;;;;;;;;;19.80;99.90;;;;;;5090439;28;19925;-86
2023/09/14 08:30:00;;;;;;;;;;;19.80;99.90;;;;;;5090345;28;19924;-86
2023/09/14 08:32:27;;;;;;;;;;;19.90;99.90;;;;;;5088279;28;19973;-86
2023/09/14 08:34:56;;;;;;;;;;;20.00;99.90;;;;;;5073539;28;19932;-86
2023/09/14 08:37:22;;;;;;;;;;;20.10;99.90;;;;;;5090423;28;19932;-86
2023/09/14 08:39:50;;;;;;;;;;;20.20;99.90;;;;;;5082755;28;20451;-86
2023/09/14 08:42:19;;;;;;;;;;;20.20;99.90;;;;;;5073531;28;19935;-86
2023/09/14 08:44:47;;;;;;;;;;;20.30;99.90;;;;;;5097899;28;19946;-87
2023/09/14 08:47:14;;;;;;;;;;;20.30;99.90;;;;;;5081781;28;19924;-85
2023/09/14 08:49:42;;;;;;;;;;;20.30;99.90;;;;;;5080725;28;19982;-85
2023/09/14 08:52:09;;;;;;;;;;;20.20;99.90;;;;;;5081553;28;19995;-85
2023/09/14 08:54:36;;;;;;;;;;;20.20;99.90;;;;;;5084151;28;19930;-85
2023/09/14 08:57:04;;;;;;;;;;;20.30;99.90;;;;;;5081919;28;19993;-85
2023/09/14 08:59:32;;;;;;;;;;;20.30;99.90;;;;;;5078490;28;19925;-85
2023/09/14 09:02:00;;;;;;;;;;;20.40;99.90;;;;;;5081823;28;19929;-85
2023/09/14 09:04:27;;;;;;;;;;;20.50;99.90;;;;;;5081097;28;19931;-85
2023/09/14 09:06:54;;;;;;;;;;;20.50;99.90;;;;;;5079785;28;19925;-85
2023/09/14 09:09:23;;;;;;;;;;;20.60;99.90;;;;;;5072542;28;20010;-86
2023/09/14 09:11:50;;;;;;;;;;;20.60;99.90;;;;;;5084247;28;19925;-85
2023/09/14 09:14:17;;;;;;;;;;;20.60;99.90;;;;;;5082976;28;20285;-85
2023/09/14 09:16:43;;;;;;;;;;;20.70;99.90;;;;;;5082212;28;19931;-85
2023/09/14 09:19:10;;;;;;;;;;;20.80;99.90;;;;;;5080583;28;20344;-85
2023/09/14 09:21:41;;;;;;;;;;;20.80;99.90;;;;;;5082936;28;19924;-85
2023/09/14 09:24:07;;;;;;;;;;;20.80;99.90;;;;;;5084296;28;19931;-86
2023/09/14 09:26:35;;;;;;;;;;;20.90;99.90;;;;;;5081044;28;20421;-85
2023/09/14 09:29:13;;;;;;;;;;;21.00;99.90;;;;;;5085301;28;19955;-86
2023/09/14 09:31:41;;;;;;;;;;;21.00;99.90;;;;;;5082220;28;19924;-85
2023/09/14 09:34:09;;;;;;;;;;;21.10;99.90;;;;;;5080554;28;19951;-85
2023/09/14 09:36:37;;;;;;;;;;;21.20;99.90;;;;;;5079915;28;20406;-85
2023/09/14 09:39:06;;;;;;;;;;;21.20;99.90;;;;;;5080495;28;19928;-86
2023/09/14 09:41:34;;;;;;;;;;;21.20;99.90;;;;;;5084041;28;19924;-86
2023/09/14 09:44:06;;;;;;;;;;;21.30;99.90;;;;;;5085090;28;19946;-86
2023/09/14 09:46:34;;;;;;;;;;;21.40;99.90;;;;;;5066187;28;19960;-86
2023/09/14 09:49:04;;;;;;;;;;;21.40;99.90;;;;;;5071169;28;19991;-86
2023/09/14 09:51:33;;;;;;;;;;;21.40;99.90;;;;;;5086042;28;19924;-85
2023/09/14 09:54:01;;;;;;;;;;;21.40;99.90;;;;;;5086525;28;19925;-86
2023/09/14 09:56:28;;;;;;;;;;;21.30;99.90;;;;;;5084303;28;19939;-87
2023/09/14 09:58:55;;;;;;;;;;;21.40;99.90;;;;;;5074503;28;19930;-86
2023/09/14 10:01:21;;;;;;;;;;;21.40;99.90;;;;;;5084955;28;19939;-85
2023/09/14 10:03:48;;;;;;;;;;;21.30;99.90;;;;;;5080691;28;19925;-85
2023/09/14 10:06:15;;;;;;;;;;;21.40;99.90;;;;;;5068959;28;19924;-86
2023/09/14 10:08:51;;;;;;;;;;;21.50;99.90;;;;;;5085322;28;19951;-85
2023/09/14 10:11:18;;;;;;;;;;;21.50;99.90;;;;;;5085639;28;19972;-86
2023/09/14 10:13:44;;;;;;;;;;;21.50;99.90;;;;;;5084550;28;19947;-86
2023/09/14 10:16:11;;;;;;;;;;;21.60;99.90;;;;;;5081088;28;19977;-85
2023/09/14 10:18:38;;;;;;;;;;;21.70;99.90;;;;;;5080705;28;20725;-85
2023/09/14 10:21:06;;;;;;;;;;;21.70;99.90;;;;;;5081598;28;19968;-85
2023/09/14 10:23:33;;;;;;;;;;;21.70;99.90;;;;;;5083233;28;20011;-85
2023/09/14 10:26:02;;;;;;;;;;;21.70;99.90;;;;;;5084250;28;19932;-85
2023/09/14 10:28:29;;;;;;;;;;;21.70;99.90;;;;;;5064055;28;19924;-85
2023/09/14 10:30:57;;;;;;;;;;;21.60;99.90;;;;;;5085864;28;20011;-85
2023/09/14 10:33:24;;;;;;;;;;;21.70;99.90;;;;;;5084066;28;19932;-85
2023/09/14 10:35:53;;;;;;;;;;;21.80;99.90;;;;;;5084874;28;20410;-86
2023/09/14 10:38:22;;;;;;;;;;;21.80;99.90;;;;;;5084156;28;19924;-86
2023/09/14 10:40:50;;;;;;;;;;;21.70;99.90;;;;;;5065279;28;20379;-85
2023/09/14 10:43:17;;;;;;;;;;;21.60;99.90;;;;;;5084079;28;19924;-85
2023/09/14 10:45:45;;;;;;;;;;;21.40;99.90;;;;;;5083404;28;20919;-85
2023/09/14 10:48:19;;;;;;;;;;;21.40;99.90;;;;;;5083767;28;20407;-86
2023/09/14 10:50:48;;;;;;;;;;;21.40;99.90;;;;;;5063926;28;19925;-85
2023/09/14 10:53:15;;;;;;;;;;;21.30;99.90;;;;;;5084227;28;19924;-85
2023/09/14 10:55:42;;;;;;;;;;;21.40;99.90;;;;;;5081082;28;19924;-85
2023/09/14 10:58:16;;;;;;;;;;;21.40;99.90;;;;;;5083884;28;19924;-85
2023/09/14 11:00:43;;;;;;;;;;;21.50;99.90;;;;;;5083448;28;19925;-85
2023/09/14 11:03:22;;;;;;;;;;;21.40;99.90;;;;;;5082639;28;19924;-85
2023/09/14 11:05:52;;;;;;;;;;;21.40;99.90;;;;;;5080873;28;19980;-87
2023/09/14 11:08:21;;;;;;;;;;;21.40;99.90;;;;;;5063654;28;19959;-86
2023/09/14 11:10:53;;;;;;;;;;;21.50;99.90;;;;;;5083873;28;19925;-85
2023/09/14 11:13:22;;;;;;;;;;;21.60;99.90;;;;;;5066832;28;20135;-85
2023/09/14 11:15:54;;;;;;;;;;;21.60;99.90;;;;;;5085361;28;19925;-85
2023/09/14 11:18:40;;;;;;;;;;;21.70;99.90;;;;;;5067489;28;19960;-86
2023/09/14 11:21:27;;;;;;;;;;;21.80;99.90;;;;;;5084351;28;19924;-85
2023/09/14 11:23:56;;;;;;;;;;;21.80;99.90;;;;;;5083666;28;20303;-85
2023/09/14 11:26:30;;;;;;;;;;;21.90;99.90;;;;;;5085107;28;19985;-85
2023/09/14 11:29:00;;;;;;;;;;;21.80;99.90;;;;;;5085731;28;19978;-85
2023/09/14 11:31:31;;;;;;;;;;;21.80;99.90;;;;;;5086971;28;19932;-86
2023/09/14 11:34:20;;;;;;;;;;;21.70;99.90;;;;;;5085077;28;19924;-85
2023/09/14 11:36:54;;;;;;;;;;;21.80;99.90;;;;;;5085464;28;19946;-86
2023/09/14 11:39:23;;;;;;;;;;;21.80;99.90;;;;;;5084285;28;19924;-86
2023/09/14 11:41:54;;;;;;;;;;;21.80;99.90;;;;;;5086261;28;19924;-85
2023/09/14 11:44:28;;;;;;;;;;;21.80;99.90;;;;;;5085810;28;20335;-85
2023/09/14 11:47:10;;;;;;;;;;;21.80;99.90;;;;;;5067588;28;19928;-85
2023/09/14 11:49:41;;;;;;;;;;;21.80;99.90;;;;;;5083624;28;19931;-85
2023/09/14 11:52:10;;;;;;;;;;;21.70;99.90;;;;;;5085804;28;19925;-85
2023/09/14 11:54:44;;;;;;;;;;;21.70;99.90;;;;;;5069122;28;19925;-85
2023/09/14 11:57:12;;;;;;;;;;;21.70;99.90;;;;;;5087589;28;20081;-85
2023/09/14 11:59:39;;;;;;;;;;;21.70;99.90;;;;;;5089334;28;19931;-85
2023/09/14 12:02:05;;;;;;;;;;;21.70;99.90;;;;;;5089428;28;19924;-85
2023/09/14 12:04:32;;;;;;;;;;;21.70;99.90;;;;;;5088286;28;19924;-85
2023/09/14 12:06:59;;;;;;;;;;;21.70;99.90;;;;;;5088234;28;20055;-87
2023/09/14 12:09:32;;;;;;;;;;;21.70;99.90;;;;;;5087907;28;19924;-85
2023/09/14 12:12:06;;;;;;;;;;;21.70;99.90;;;;;;5064852;28;19972;-85
2023/09/14 12:14:33;;;;;;;;;;;21.60;99.90;;;;;;5087503;28;19924;-86
2023/09/14 12:17:00;;;;;;;;;;;21.50;99.90;;;;;;5068527;28;19925;-85
2023/09/14 12:19:27;;;;;;;;;;;21.50;99.90;;;;;;5087511;28;20341;-85
2023/09/14 12:21:54;;;;;;;;;;;21.60;99.90;;;;;;5087128;28;20496;-85
2023/09/14 12:24:23;;;;;;;;;;;21.50;99.90;;;;;;5086668;28;19978;-86
2023/09/14 12:26:50;;;;;;;;;;;21.50;99.90;;;;;;5087546;28;19924;-85
2023/09/14 12:29:17;;;;;;;;;;;21.50;99.90;;;;;;5087331;28;19925;-85
2023/09/14 12:31:43;;;;;;;;;;;21.50;99.90;;;;;;5088132;28;19924;-85
2023/09/14 12:34:10;;;;;;;;;;;21.50;99.90;;;;;;5084871;28;19951;-86
2023/09/14 12:36:37;;;;;;;;;;;21.50;99.90;;;;;;5084325;28;19931;-86
2023/09/14 12:39:09;;;;;;;;;;;21.50;99.90;;;;;;5065536;28;19929;-85
2023/09/14 12:41:36;;;;;;;;;;;21.50;99.90;;;;;;5085900;28;19925;-85
2023/09/14 12:44:03;;;;;;;;;;;21.50;99.90;;;;;;5085712;28;19928;-85
2023/09/14 12:46:31;;;;;;;;;;;21.60;99.90;;;;;;5086166;28;19925;-86
2023/09/14 12:49:00;;;;;;;;;;;21.60;99.90;;;;;;5086398;28;20368;-86
2023/09/14 12:51:27;;;;;;;;;;;21.60;99.90;;;;;;5086864;28;20200;-86
2023/09/14 12:53:55;;;;;;;;;;;21.60;99.90;;;;;;5088593;28;19935;-85
2023/09/14 12:56:22;;;;;;;;;;;21.60;99.90;;;;;;5087713;28;19979;-85
2023/09/14 12:58:50;;;;;;;;;;;21.70;99.90;;;;;;5086362;28;19924;-85
2023/09/14 13:01:16;;;;;;;;;;;21.70;99.90;;;;;;5086246;28;19925;-86
2023/09/14 13:03:43;;;;;;;;;;;21.70;99.90;;;;;;5084528;28;19924;-86
2023/09/14 13:06:10;;;;;;;;;;;21.70;99.90;;;;;;5082463;28;19995;-85
2023/09/14 13:08:49;;;;;;;;;;;21.70;99.90;;;;;;5068441;28;19924;-86
2023/09/14 13:11:19;;;;;;;;;;;21.80;99.90;;;;;;5081577;28;20227;-86
2023/09/14 13:13:46;;;;;;;;;;;21.90;99.90;;;;;;5083869;28;19946;-86
2023/09/14 13:16:19;;;;;;;;;;;21.90;99.90;;;;;;5084163;28;19924;-85
2023/09/14 13:18:47;;;;;;;;;;;21.90;99.90;;;;;;5085671;28;19932;-86
2023/09/14 13:21:15;;;;;;;;;;;21.90;99.90;;;;;;5086507;28;19954;-85
2023/09/14 13:23:41;;;;;;;;;;;21.90;99.90;;;;;;5085903;28;20311;-86
2023/09/14 13:26:08;;;;;;;;;;;22.00;99.90;;;;;;5083305;28;19925;-86
2023/09/14 13:28:35;;;;;;;;;;;22.10;99.90;;;;;;5087390;28;19928;-86
2023/09/14 13:31:03;;;;;;;;;;;22.10;99.90;;;;;;5086478;28;19924;-85
2023/09/14 13:33:30;;;;;;;;;;;22.20;99.90;;;;;;5086259;28;19931;-85
2023/09/14 13:36:00;;;;;;;;;;;22.20;99.90;;;;;;5088289;28;20023;-85
2023/09/14 13:38:29;;;;;;;;;;;22.20;99.90;;;;;;5086438;28;19947;-85
2023/09/14 13:40:56;;;;;;;;;;;22.40;99.90;;;;;;5086683;28;19928;-86
2023/09/14 13:43:23;;;;;;;;;;;22.40;99.90;;;;;;5073462;28;19924;-86
2023/09/14 13:45:51;;;;;;;;;;;22.50;99.90;;;;;;5086255;28;19929;-86
2023/09/14 13:48:19;;;;;;;;;;;22.40;99.90;;;;;;5066353;28;20307;-86
2023/09/14 13:50:47;;;;;;;;;;;22.50;99.90;;;;;;5085349;28;20346;-85
2023/09/14 13:53:13;;;;;;;;;;;22.50;99.90;;;;;;5086465;28;20512;-86
2023/09/14 13:55:43;;;;;;;;;;;22.50;99.90;;;;;;5085306;28;19970;-85
2023/09/14 13:58:10;;;;;;;;;;;22.60;99.90;;;;;;5077679;28;19962;-86
2023/09/14 14:00:36;;;;;;;;;;;22.70;99.90;;;;;;5086472;28;19924;-86
2023/09/14 14:03:07;;;;;;;;;;;22.80;99.90;;;;;;5086636;28;19931;-87
2023/09/14 14:05:34;;;;;;;;;;;22.80;99.90;;;;;;5068047;28;19931;-86
2023/09/14 14:08:04;;;;;;;;;;;22.90;99.90;;;;;;5086750;28;19925;-85
2023/09/14 14:10:31;;;;;;;;;;;22.90;99.90;;;;;;5087213;28;19924;-86
2023/09/14 14:12:58;;;;;;;;;;;22.90;99.90;;;;;;5084315;28;19924;-86
2023/09/14 14:15:25;;;;;;;;;;;22.90;99.90;;;;;;5086292;28;19965;-86
2023/09/14 14:17:53;;;;;;;;;;;23.00;99.90;;;;;;5087404;28;19979;-85
2023/09/14 14:20:21;;;;;;;;;;;23.00;99.90;;;;;;5088494;28;19932;-85